createdAt,value
2017-08-30T00:01:14.092Z,14.87
2017-08-30T00:03:41.931Z,14.50
2017-08-30T00:06:09.739Z,14.33
2017-08-30T00:08:37.556Z,14.60
2017-08-30T00:11:05.362Z,13.97
2017-08-30T00:13:33.157Z,13.20
2017-08-30T00:16:00.984Z,15.77
2017-08-30T00:18:28.787Z,16.23
2017-08-30T00:20:56.668Z,15.90
2017-08-30T00:23:24.461Z,16.53
2017-08-30T00:26:04.006Z,18.17
2017-08-30T00:28:31.784Z,17.07
2017-08-30T00:30:59.639Z,18.93
2017-08-30T00:33:27.451Z,20.17
2017-08-30T00:35:55.272Z,19.03
2017-08-30T00:38:23.096Z,19.17
2017-08-30T00:40:50.988Z,17.90
2017-08-30T00:43:18.865Z,18.17
2017-08-30T00:45:46.734Z,18.90
2017-08-30T00:48:14.646Z,17.60
2017-08-30T00:50:42.488Z,15.17
2017-08-30T00:53:10.389Z,15.50
2017-08-30T00:55:38.252Z,15.33
2017-08-30T00:58:06.143Z,15.63
2017-08-30T01:00:34.023Z,15.20
2017-08-30T01:03:01.934Z,16.27
2017-08-30T01:05:29.807Z,15.80
2017-08-30T01:07:57.728Z,16.03
2017-08-30T01:10:25.460Z,15.90
2017-08-30T01:12:53.352Z,15.10
2017-08-30T01:15:21.199Z,16.60
2017-08-30T01:17:49.037Z,17.03
2017-08-30T01:20:16.940Z,15.30
2017-08-30T01:22:44.772Z,15.33
2017-08-30T01:25:12.726Z,16.90
2017-08-30T01:27:40.565Z,14.60
2017-08-30T01:30:08.460Z,14.30
2017-08-30T01:32:36.284Z,15.27
2017-08-30T01:35:04.165Z,13.87
2017-08-30T01:37:31.984Z,14.00
2017-08-30T01:39:59.836Z,13.70
2017-08-30T01:42:27.713Z,13.13
2017-08-30T01:44:55.555Z,15.27
2017-08-30T01:47:23.425Z,15.70
2017-08-30T01:49:51.262Z,13.70
2017-08-30T01:52:19.145Z,14.00
2017-08-30T01:54:47.040Z,14.20
2017-08-30T01:57:14.924Z,14.00
2017-08-30T01:59:42.792Z,17.00
2017-08-30T02:02:10.689Z,16.27
2017-08-30T02:04:38.522Z,15.93
2017-08-30T02:07:06.351Z,16.83
2017-08-30T02:09:34.208Z,14.87
2017-08-30T02:12:02.031Z,13.70
2017-08-30T02:14:29.914Z,15.33
2017-08-30T02:16:57.758Z,15.10
2017-08-30T02:19:25.541Z,14.20
2017-08-30T02:21:53.406Z,15.10
2017-08-30T02:24:21.290Z,15.10
2017-08-30T02:26:49.046Z,14.47
2017-08-30T02:29:16.888Z,14.70
2017-08-30T02:31:44.659Z,14.73
2017-08-30T02:34:12.414Z,16.30
2017-08-30T02:36:40.292Z,14.50
2017-08-30T02:39:08.026Z,15.17
2017-08-30T02:41:35.904Z,16.80
2017-08-30T02:44:03.740Z,16.27
2017-08-30T02:46:31.621Z,14.90
2017-08-30T02:48:59.452Z,13.23
2017-08-30T02:51:27.281Z,13.77
2017-08-30T02:53:55.054Z,13.10
2017-08-30T02:56:22.889Z,13.03
2017-08-30T02:58:50.768Z,13.60
2017-08-30T03:01:18.608Z,15.63
2017-08-30T03:03:46.483Z,15.00
2017-08-30T03:06:14.305Z,14.47
2017-08-30T03:08:42.192Z,14.37
2017-08-30T03:11:10.034Z,15.70
2017-08-30T03:13:37.872Z,15.97
2017-08-30T03:16:05.728Z,13.13
2017-08-30T03:18:33.605Z,14.53
2017-08-30T03:21:01.561Z,14.33
2017-08-30T03:23:29.402Z,15.47
2017-08-30T03:25:57.192Z,15.10
2017-08-30T03:28:25.025Z,16.70
2017-08-30T03:30:52.907Z,13.80
2017-08-30T03:33:20.753Z,14.20
2017-08-30T03:35:48.540Z,15.23
2017-08-30T03:38:16.388Z,13.57
2017-08-30T03:40:44.295Z,14.17
2017-08-30T03:43:12.046Z,12.40
2017-08-30T03:45:39.879Z,13.03
2017-08-30T03:48:07.760Z,13.03
2017-08-30T03:50:35.579Z,13.50
2017-08-30T03:53:03.451Z,13.37
2017-08-30T03:55:31.280Z,13.10
2017-08-30T03:57:59.192Z,14.87
2017-08-30T04:00:27.047Z,13.87
2017-08-30T04:02:54.928Z,13.77
2017-08-30T04:05:22.765Z,14.17
2017-08-30T04:07:50.682Z,12.43
2017-08-30T04:10:19.273Z,11.80
2017-08-30T04:12:47.116Z,13.53
2017-08-30T04:15:15.070Z,12.20
2017-08-30T04:17:42.928Z,12.97
2017-08-30T04:20:10.871Z,12.57
2017-08-30T04:22:38.701Z,12.60
2017-08-30T04:25:06.534Z,14.10
2017-08-30T04:27:34.410Z,12.70
2017-08-30T04:30:02.335Z,14.30
2017-08-30T04:32:30.185Z,14.90
2017-08-30T04:34:57.981Z,12.47
2017-08-30T04:37:25.758Z,13.00
2017-08-30T04:39:53.491Z,13.00
2017-08-30T04:42:21.291Z,15.97
2017-08-30T04:44:49.044Z,13.73
2017-08-30T04:47:16.816Z,13.83
2017-08-30T04:49:44.579Z,16.07
2017-08-30T04:52:12.443Z,17.50
2017-08-30T04:54:40.189Z,14.17
2017-08-30T04:57:08.017Z,13.30
2017-08-30T04:59:35.752Z,13.10
2017-08-30T05:02:03.471Z,11.73
2017-08-30T05:04:31.251Z,11.27
2017-08-30T05:06:58.983Z,10.53
2017-08-30T05:09:26.794Z,12.60
2017-08-30T05:11:54.529Z,12.80
2017-08-30T05:14:22.314Z,11.43
2017-08-30T05:16:50.040Z,11.63
2017-08-30T05:19:17.819Z,11.80
2017-08-30T05:21:45.566Z,11.00
2017-08-30T05:24:13.348Z,10.60
2017-08-30T05:26:41.100Z,10.57
2017-08-30T05:29:08.824Z,11.07
2017-08-30T05:31:36.609Z,10.80
2017-08-30T05:34:04.409Z,11.60
2017-08-30T05:36:32.196Z,10.63
2017-08-30T05:38:59.941Z,10.33
2017-08-30T05:41:27.765Z,11.17
2017-08-30T05:43:55.518Z,12.07
2017-08-30T05:46:23.318Z,11.83
2017-08-30T05:48:51.096Z,12.57
2017-08-30T05:51:18.894Z,12.60
2017-08-30T05:53:46.639Z,11.17
2017-08-30T05:56:14.416Z,12.50
2017-08-30T05:58:42.176Z,12.07
2017-08-30T06:01:09.993Z,12.37
2017-08-30T06:03:37.807Z,11.40
2017-08-30T06:06:05.581Z,12.80
2017-08-30T06:08:33.407Z,13.53
2017-08-30T06:11:01.155Z,12.47
2017-08-30T06:13:28.931Z,14.90
2017-08-30T06:15:56.708Z,14.20
2017-08-30T06:18:24.493Z,14.50
2017-08-30T06:20:52.240Z,13.90
2017-08-30T06:23:20.048Z,14.00
2017-08-30T06:25:47.784Z,13.27
2017-08-30T06:28:15.520Z,14.47
2017-08-30T06:30:43.317Z,14.80
2017-08-30T06:33:11.116Z,14.57
2017-08-30T06:35:38.941Z,13.87
2017-08-30T06:38:06.676Z,14.80
2017-08-30T06:40:34.465Z,14.73
2017-08-30T06:43:02.198Z,14.00
2017-08-30T06:45:30.031Z,13.93
2017-08-30T06:47:57.774Z,14.03
2017-08-30T06:50:25.571Z,13.97
2017-08-30T06:52:53.320Z,12.80
2017-08-30T06:55:21.062Z,13.27
2017-08-30T06:57:48.860Z,13.80
2017-08-30T07:00:16.597Z,12.80
2017-08-30T07:02:44.369Z,12.90
2017-08-30T07:05:12.124Z,12.80
2017-08-30T07:07:39.922Z,12.17
2017-08-30T07:10:07.679Z,12.20
2017-08-30T07:12:35.445Z,12.87
2017-08-30T07:15:03.219Z,13.17
2017-08-30T07:17:31.010Z,13.20
2017-08-30T07:19:58.761Z,12.67
2017-08-30T07:22:26.540Z,12.97
2017-08-30T07:24:54.256Z,13.00
2017-08-30T07:27:22.077Z,13.20
2017-08-30T07:29:49.810Z,12.60
2017-08-30T07:32:17.533Z,12.53
2017-08-30T07:34:45.323Z,11.20
2017-08-30T07:37:13.081Z,11.43
2017-08-30T07:39:40.856Z,11.77
2017-08-30T07:42:08.598Z,12.20
2017-08-30T07:44:36.409Z,11.53
2017-08-30T07:47:04.194Z,11.33
2017-08-30T07:49:31.985Z,11.80
2017-08-30T07:51:59.733Z,11.40
2017-08-30T07:54:27.552Z,11.30
2017-08-30T07:56:55.313Z,11.10
2017-08-30T07:59:23.153Z,11.17
2017-08-30T08:01:50.904Z,10.83
2017-08-30T08:04:18.649Z,11.07
2017-08-30T08:06:46.466Z,10.80
2017-08-30T08:09:14.211Z,10.97
2017-08-30T08:11:42.009Z,9.70
2017-08-30T08:14:09.770Z,9.87
2017-08-30T08:16:37.602Z,10.07
2017-08-30T08:19:05.457Z,10.07
2017-08-30T08:21:33.264Z,10.80
2017-08-30T08:24:01.119Z,10.10
2017-08-30T08:26:30.032Z,9.90
2017-08-30T08:28:57.892Z,10.23
2017-08-30T08:31:25.701Z,9.93
2017-08-30T08:33:53.559Z,9.87
2017-08-30T08:36:21.452Z,10.27
2017-08-30T08:38:49.298Z,9.63
2017-08-30T08:41:17.143Z,9.63
2017-08-30T08:43:44.937Z,10.03
2017-08-30T08:46:12.679Z,8.90
2017-08-30T08:48:40.487Z,9.10
2017-08-30T08:51:08.235Z,8.70
2017-08-30T08:53:36.053Z,9.27
2017-08-30T08:56:03.783Z,8.70
2017-08-30T08:58:31.590Z,9.60
2017-08-30T09:00:59.379Z,9.37
2017-08-30T09:03:27.267Z,8.87
2017-08-30T09:05:55.133Z,8.53
2017-08-30T09:08:22.880Z,8.27
2017-08-30T09:10:50.656Z,8.90
2017-08-30T09:13:18.516Z,8.20
2017-08-30T09:15:46.415Z,8.33
2017-08-30T09:18:14.256Z,7.77
2017-08-30T09:20:42.111Z,7.50
2017-08-30T09:23:09.959Z,8.53
2017-08-30T09:25:37.884Z,8.33
2017-08-30T09:28:05.749Z,8.70
2017-08-30T09:30:33.648Z,8.23
2017-08-30T09:33:01.509Z,8.47
2017-08-30T09:35:29.388Z,8.57
2017-08-30T09:37:57.268Z,9.07
2017-08-30T09:40:25.133Z,9.87
2017-08-30T09:42:53.064Z,9.00
2017-08-30T09:45:20.939Z,9.53
2017-08-30T09:47:48.847Z,9.40
2017-08-30T09:50:16.781Z,9.63
2017-08-30T09:52:44.677Z,8.77
2017-08-30T09:55:12.442Z,8.90
2017-08-30T09:57:40.271Z,9.67
2017-08-30T10:00:08.132Z,9.50
2017-08-30T10:02:36.028Z,9.10
2017-08-30T10:05:03.871Z,9.83
2017-08-30T10:07:31.781Z,9.73
2017-08-30T10:09:59.779Z,9.83
2017-08-30T10:12:27.675Z,10.07
2017-08-30T10:14:55.545Z,9.17
2017-08-30T10:17:23.467Z,9.17
2017-08-30T10:19:51.324Z,9.30
2017-08-30T10:22:19.137Z,10.30
2017-08-30T10:24:46.950Z,10.10
2017-08-30T10:27:14.842Z,10.13
2017-08-30T10:29:42.721Z,9.97
2017-08-30T10:32:10.572Z,9.33
2017-08-30T10:34:38.463Z,9.87
2017-08-30T10:37:06.242Z,9.60
2017-08-30T10:39:34.151Z,9.80
2017-08-30T10:42:02.031Z,10.90
2017-08-30T10:44:29.917Z,9.87
2017-08-30T10:46:57.776Z,10.97
2017-08-30T10:49:25.613Z,10.30
2017-08-30T10:51:53.458Z,9.80
2017-08-30T10:54:22.184Z,10.50
2017-08-30T10:56:50.099Z,10.60
2017-08-30T10:59:17.942Z,10.00
2017-08-30T11:01:45.777Z,10.40
2017-08-30T11:04:13.653Z,10.00
2017-08-30T11:06:41.706Z,9.67
2017-08-30T11:09:09.465Z,11.07
2017-08-30T11:11:38.061Z,9.30
2017-08-30T11:14:05.842Z,10.70
2017-08-30T11:16:33.642Z,10.90
2017-08-30T11:19:01.507Z,10.97
2017-08-30T11:21:29.463Z,10.20
2017-08-30T11:23:57.318Z,10.77
2017-08-30T11:26:25.212Z,11.00
2017-08-30T11:28:53.056Z,10.10
2017-08-30T11:31:20.937Z,11.07
2017-08-30T11:33:48.831Z,11.23
2017-08-30T11:36:16.576Z,9.83
2017-08-30T11:38:44.359Z,10.43
2017-08-30T11:41:12.120Z,10.43
2017-08-30T11:43:39.933Z,10.57
2017-08-30T11:46:07.745Z,10.60
2017-08-30T11:48:35.552Z,9.87
2017-08-30T11:51:03.341Z,10.27
2017-08-30T11:53:31.113Z,9.70
2017-08-30T11:55:58.858Z,10.23
2017-08-30T11:58:26.716Z,9.27
2017-08-30T12:00:54.455Z,9.60
2017-08-30T12:03:22.242Z,10.10
2017-08-30T12:05:49.986Z,9.47
2017-08-30T12:08:17.739Z,9.97
2017-08-30T12:10:45.549Z,10.07
2017-08-30T12:13:13.301Z,10.50
2017-08-30T12:15:41.086Z,9.80
2017-08-30T12:18:08.842Z,10.00
2017-08-30T12:20:36.708Z,10.00
2017-08-30T12:23:04.483Z,9.40
2017-08-30T12:25:32.312Z,9.80
2017-08-30T12:28:00.120Z,9.83
2017-08-30T12:30:28.114Z,11.30
2017-08-30T12:32:55.901Z,10.20
2017-08-30T12:35:23.744Z,10.40
2017-08-30T12:37:57.164Z,10.53
2017-08-30T12:40:25.005Z,9.93
2017-08-30T12:42:52.863Z,10.20
2017-08-30T12:45:20.755Z,10.40
2017-08-30T12:47:49.145Z,10.70
2017-08-30T12:50:17.074Z,10.27
2017-08-30T12:52:44.884Z,10.30
2017-08-30T12:55:12.762Z,10.13
2017-08-30T12:57:40.587Z,11.53
2017-08-30T13:00:08.377Z,10.90
2017-08-30T13:02:36.184Z,10.47
2017-08-30T13:05:03.980Z,10.70
2017-08-30T13:07:31.889Z,10.90
2017-08-30T13:09:59.744Z,10.53
2017-08-30T13:12:27.571Z,10.57
2017-08-30T13:14:55.354Z,10.27
2017-08-30T13:17:23.151Z,10.87
2017-08-30T13:19:51.022Z,10.63
2017-08-30T13:22:19.009Z,10.47
2017-08-30T13:24:46.866Z,10.97
2017-08-30T13:27:14.633Z,9.90
2017-08-30T13:29:42.536Z,10.20
2017-08-30T13:32:10.355Z,10.20
2017-08-30T13:34:38.160Z,10.20
2017-08-30T13:37:05.917Z,10.43
2017-08-30T13:39:33.733Z,10.23
2017-08-30T13:42:01.490Z,10.10
2017-08-30T13:44:29.276Z,9.50
2017-08-30T13:46:57.147Z,9.30
2017-08-30T13:49:24.956Z,10.30
2017-08-30T13:51:52.700Z,8.63
2017-08-30T13:54:20.662Z,8.83
2017-08-30T13:56:48.414Z,8.63
2017-08-30T13:59:16.360Z,8.40
2017-08-30T14:01:44.241Z,9.50
2017-08-30T14:04:12.108Z,9.40
2017-08-30T14:06:40.029Z,8.60
2017-08-30T14:09:07.896Z,9.00
2017-08-30T14:11:35.810Z,9.10
2017-08-30T14:14:03.668Z,9.70
2017-08-30T14:16:31.593Z,9.00
2017-08-30T14:18:59.445Z,9.40
2017-08-30T14:21:27.410Z,9.27
2017-08-30T14:23:55.153Z,9.20
2017-08-30T14:26:22.989Z,9.17
2017-08-30T14:28:50.873Z,9.03
2017-08-30T14:31:18.803Z,8.87
2017-08-30T14:33:46.674Z,9.50
2017-08-30T14:36:14.577Z,9.67
2017-08-30T14:38:42.322Z,9.20
2017-08-30T14:41:10.180Z,10.10
2017-08-30T14:43:38.126Z,9.47
2017-08-30T14:46:05.961Z,8.40
2017-08-30T14:48:33.850Z,9.50
2017-08-30T14:51:01.703Z,9.23
2017-08-30T14:53:29.630Z,8.73
2017-08-30T14:55:57.494Z,9.03
2017-08-30T14:58:25.385Z,8.60
2017-08-30T15:00:53.248Z,8.60
2017-08-30T15:03:21.134Z,9.37
2017-08-30T15:05:49.024Z,8.80
2017-08-30T15:08:16.913Z,8.30
2017-08-30T15:10:44.784Z,8.80
2017-08-30T15:13:12.700Z,8.67
2017-08-30T15:15:40.574Z,9.50
2017-08-30T15:18:08.501Z,8.67
2017-08-30T15:20:36.417Z,9.00
2017-08-30T15:23:04.334Z,9.53
2017-08-30T15:25:32.231Z,9.30
2017-08-30T15:28:00.088Z,9.73
2017-08-30T15:30:27.964Z,9.67
2017-08-30T15:32:55.834Z,9.83
2017-08-30T15:35:23.780Z,9.73
2017-08-30T15:37:51.609Z,9.60
2017-08-30T15:40:19.540Z,9.73
2017-08-30T15:42:47.404Z,9.30
2017-08-30T15:45:15.295Z,9.00
2017-08-30T15:47:43.185Z,8.60
2017-08-30T15:50:11.145Z,8.57
2017-08-30T15:52:39.017Z,9.47
2017-08-30T15:55:06.987Z,9.00
2017-08-30T15:57:34.860Z,8.83
2017-08-30T16:00:02.736Z,9.23
2017-08-30T16:02:30.627Z,8.80
2017-08-30T16:04:58.489Z,8.20
2017-08-30T16:07:26.307Z,8.27
2017-08-30T16:09:54.106Z,8.27
2017-08-30T16:12:22.015Z,8.70
2017-08-30T16:14:52.125Z,9.43
2017-08-30T16:17:20.340Z,8.77
2017-08-30T16:19:48.209Z,8.70
2017-08-30T16:22:16.183Z,9.20
2017-08-30T16:24:43.922Z,9.00
2017-08-30T16:27:11.724Z,8.67
2017-08-30T16:29:39.488Z,9.00
2017-08-30T16:32:07.376Z,8.90
2017-08-30T16:34:35.209Z,8.67
2017-08-30T16:37:03.002Z,9.00
2017-08-30T16:39:30.774Z,9.03
2017-08-30T16:41:58.622Z,8.83
2017-08-30T16:44:26.485Z,8.67
2017-08-30T16:46:54.322Z,8.63
2017-08-30T16:49:22.207Z,8.57
2017-08-30T16:51:50.060Z,9.17
2017-08-30T16:54:17.949Z,8.57
2017-08-30T16:56:45.808Z,8.90
2017-08-30T16:59:13.697Z,8.40
2017-08-30T17:01:41.602Z,8.10
2017-08-30T17:04:09.447Z,8.90
2017-08-30T17:06:37.380Z,9.20
2017-08-30T17:09:05.343Z,8.80
2017-08-30T17:11:33.312Z,8.77
2017-08-30T17:14:01.181Z,9.37
2017-08-30T17:16:28.988Z,9.30
2017-08-30T17:18:56.916Z,9.50
2017-08-30T17:21:24.847Z,8.40
2017-08-30T17:23:52.626Z,8.60
2017-08-30T17:26:20.521Z,8.90
2017-08-30T17:28:48.365Z,8.80
2017-08-30T17:31:16.285Z,8.70
2017-08-30T17:33:44.129Z,10.10
2017-08-30T17:36:11.941Z,8.90
2017-08-30T17:38:39.669Z,8.80
2017-08-30T17:41:07.493Z,8.77
2017-08-30T17:43:35.281Z,9.30
2017-08-30T17:46:03.140Z,8.40
2017-08-30T17:48:31.042Z,9.17
2017-08-30T17:50:58.902Z,9.03
2017-08-30T17:53:26.707Z,8.70
2017-08-30T17:55:54.475Z,11.00
2017-08-30T17:58:22.335Z,9.40
2017-08-30T18:00:50.076Z,9.00
2017-08-30T18:03:17.898Z,9.03
2017-08-30T18:05:45.652Z,8.97
2017-08-30T18:08:13.447Z,9.13
2017-08-30T18:10:41.246Z,9.00
2017-08-30T18:13:09.084Z,10.10
2017-08-30T18:15:37.015Z,8.50
2017-08-30T18:18:04.941Z,9.47
2017-08-30T18:20:32.784Z,8.80
2017-08-30T18:23:00.566Z,9.17
2017-08-30T18:25:28.429Z,9.30
2017-08-30T18:27:56.345Z,8.40
2017-08-30T18:30:24.168Z,9.23
2017-08-30T18:32:51.949Z,9.27
2017-08-30T18:35:19.750Z,9.20
2017-08-30T18:37:47.482Z,10.00
2017-08-30T18:40:15.274Z,9.33
2017-08-30T18:42:43.000Z,9.63
2017-08-30T18:45:10.836Z,9.87
2017-08-30T18:47:38.592Z,9.60
2017-08-30T18:50:06.682Z,10.00
2017-08-30T18:52:34.491Z,10.00
2017-08-30T18:55:02.305Z,10.60
2017-08-30T18:57:30.120Z,10.50
2017-08-30T18:59:57.952Z,10.27
2017-08-30T19:02:25.746Z,11.20
2017-08-30T19:04:53.521Z,10.80
2017-08-30T19:07:21.342Z,10.40
2017-08-30T19:09:49.204Z,10.50
2017-08-30T19:12:17.137Z,11.47
2017-08-30T19:14:44.978Z,11.40
2017-08-30T19:17:12.906Z,11.97
2017-08-30T19:19:40.823Z,12.03
2017-08-30T19:22:08.673Z,12.03
2017-08-30T19:24:36.525Z,11.80
2017-08-30T19:27:04.432Z,12.13
2017-08-30T19:29:32.220Z,11.87
2017-08-30T19:32:00.109Z,12.20
2017-08-30T19:34:27.923Z,12.93
2017-08-30T19:36:55.735Z,12.33
2017-08-30T19:39:23.519Z,13.53
2017-08-30T19:41:51.294Z,12.10
2017-08-30T19:44:19.077Z,12.57
2017-08-30T19:46:46.857Z,12.07
2017-08-30T19:49:14.692Z,13.50
2017-08-30T19:51:42.573Z,13.17
2017-08-30T19:54:10.548Z,13.30
2017-08-30T19:56:38.326Z,13.27
2017-08-30T19:59:06.120Z,12.80
2017-08-30T20:01:34.004Z,11.90
2017-08-30T20:04:01.772Z,12.50
2017-08-30T20:06:29.604Z,11.90
2017-08-30T20:08:57.407Z,11.50
2017-08-30T20:11:25.244Z,13.43
2017-08-30T20:13:53.031Z,11.10
2017-08-30T20:16:20.861Z,13.73
2017-08-30T20:18:48.696Z,12.40
2017-08-30T20:21:16.677Z,12.37
2017-08-30T20:23:44.437Z,12.57
2017-08-30T20:26:12.354Z,13.80
2017-08-30T20:28:40.329Z,12.50
2017-08-30T20:31:08.243Z,12.17
2017-08-30T20:33:36.161Z,12.43
2017-08-30T20:36:04.069Z,12.60
2017-08-30T20:38:31.937Z,12.40
2017-08-30T20:40:59.747Z,12.20
2017-08-30T20:43:27.596Z,12.43
2017-08-30T20:45:55.409Z,12.80
2017-08-30T20:48:23.276Z,13.03
2017-08-30T20:50:51.108Z,13.03
2017-08-30T20:53:18.860Z,12.67
2017-08-30T20:55:46.651Z,12.20
2017-08-30T20:58:14.521Z,13.47
2017-08-30T21:00:42.372Z,13.67
2017-08-30T21:03:10.245Z,13.40
2017-08-30T21:05:38.020Z,14.00
2017-08-30T21:08:05.920Z,13.53
2017-08-30T21:10:33.684Z,15.47
2017-08-30T21:13:01.596Z,14.40
2017-08-30T21:15:29.361Z,15.23
2017-08-30T21:17:57.134Z,14.17
2017-08-30T21:20:24.973Z,15.67
2017-08-30T21:22:52.795Z,14.70
2017-08-30T21:25:20.650Z,14.00
2017-08-30T21:27:48.449Z,14.47
2017-08-30T21:30:16.329Z,15.07
2017-08-30T21:32:44.068Z,14.20
2017-08-30T21:35:11.874Z,13.93
2017-08-30T21:37:39.766Z,14.73
2017-08-30T21:40:08.074Z,14.60
2017-08-30T21:42:35.925Z,15.57
2017-08-30T21:45:03.828Z,14.70
2017-08-30T21:47:31.579Z,14.27
2017-08-30T21:49:59.467Z,13.90
2017-08-30T21:52:27.324Z,15.03
2017-08-30T21:54:55.200Z,15.03
2017-08-30T21:57:23.093Z,15.60
2017-08-30T21:59:50.940Z,15.73
2017-08-30T22:02:18.840Z,15.77
2017-08-30T22:04:46.586Z,16.00
2017-08-30T22:07:14.455Z,15.77
2017-08-30T22:09:42.321Z,15.83
2017-08-30T22:12:10.206Z,16.00
2017-08-30T22:14:38.064Z,17.33
2017-08-30T22:17:05.973Z,18.10
2017-08-30T22:19:33.820Z,17.90
2017-08-30T22:22:01.784Z,18.60
2017-08-30T22:24:29.637Z,19.53
2017-08-30T22:26:57.386Z,19.60
2017-08-30T22:29:25.292Z,19.40
2017-08-30T22:31:53.182Z,19.30
2017-08-30T22:34:21.056Z,19.37
2017-08-30T22:36:48.905Z,20.90
2017-08-30T22:39:16.783Z,21.23
2017-08-30T22:41:44.667Z,21.63
2017-08-30T22:44:12.589Z,22.17
2017-08-30T22:46:40.452Z,22.60
2017-08-30T22:49:08.339Z,24.50
2017-08-30T22:51:36.213Z,24.90
2017-08-30T22:54:04.121Z,25.30
2017-08-30T22:56:31.959Z,27.80
2017-08-30T22:58:59.813Z,30.77
2017-08-30T23:01:27.706Z,28.97
2017-08-30T23:03:55.561Z,29.37
2017-08-30T23:06:23.447Z,28.70
2017-08-30T23:08:51.302Z,29.80
2017-08-30T23:11:19.192Z,29.57
2017-08-30T23:13:47.056Z,30.33
2017-08-30T23:16:14.967Z,31.90
2017-08-30T23:18:42.825Z,32.03
2017-08-30T23:21:10.751Z,33.70
2017-08-30T23:23:38.600Z,33.80
2017-08-30T23:26:06.485Z,31.30
2017-08-30T23:28:34.341Z,31.77
2017-08-30T23:31:02.211Z,33.60
2017-08-30T23:33:30.073Z,33.97
2017-08-30T23:35:57.933Z,32.20
2017-08-30T23:38:25.821Z,32.57
2017-08-30T23:40:53.590Z,31.70
2017-08-30T23:43:21.420Z,29.10
2017-08-30T23:45:49.269Z,32.20
2017-08-30T23:48:17.208Z,27.57
2017-08-30T23:50:45.051Z,30.40
2017-08-30T23:53:12.940Z,29.90
2017-08-30T23:55:40.841Z,27.40
2017-08-30T23:58:08.712Z,30.60
